createdAt,value
2022-10-17T00:02:02.969Z,2.38
2022-10-17T00:07:11.293Z,2.40
2022-10-17T00:12:25.272Z,2.60
2022-10-17T00:17:42.913Z,2.55
2022-10-17T00:22:50.245Z,2.53
2022-10-17T00:28:01.181Z,2.30
2022-10-17T00:33:12.298Z,2.58
2022-10-17T00:38:16.870Z,2.15
2022-10-17T00:43:26.946Z,2.40
2022-10-17T00:48:36.398Z,2.30
2022-10-17T00:53:45.376Z,2.22
2022-10-17T00:58:55.449Z,2.28
2022-10-17T01:04:05.383Z,2.50
2022-10-17T01:09:17.410Z,2.28
2022-10-17T01:14:31.891Z,2.17
2022-10-17T01:20:07.360Z,2.17
2022-10-17T01:25:37.434Z,2.20
2022-10-17T01:31:13.398Z,2.25
2022-10-17T01:36:34.947Z,2.05
2022-10-17T01:41:44.836Z,2.10
2022-10-17T01:47:00.166Z,1.98
2022-10-17T01:52:16.020Z,2.30
2022-10-17T01:57:32.953Z,2.00
2022-10-17T02:02:51.636Z,2.40
2022-10-17T02:08:01.487Z,1.95
2022-10-17T02:13:15.786Z,1.88
2022-10-17T02:18:48.677Z,2.00
2022-10-17T02:24:15.940Z,2.20
2022-10-17T02:29:30.317Z,1.90
2022-10-17T02:34:42.664Z,1.80
2022-10-17T02:39:56.213Z,1.42
2022-10-17T02:45:06.656Z,1.63
2022-10-17T02:50:26.356Z,2.10
2022-10-17T02:55:35.674Z,1.90
2022-10-17T03:00:46.019Z,1.63
2022-10-17T03:05:56.262Z,1.77
2022-10-17T03:11:05.645Z,1.48
2022-10-17T03:16:20.090Z,1.50
2022-10-17T03:21:31.727Z,1.80
2022-10-17T03:26:51.192Z,1.60
2022-10-17T03:32:00.025Z,1.92
2022-10-17T03:37:13.081Z,1.92
2022-10-17T03:42:22.231Z,1.52
2022-10-17T03:47:31.687Z,1.63
2022-10-17T03:52:59.155Z,2.28
2022-10-17T03:58:13.312Z,1.58
2022-10-17T04:09:08.894Z,1.70
2022-10-17T04:14:22.343Z,2.00
2022-10-17T04:19:33.252Z,1.50
2022-10-17T04:24:44.847Z,1.60
2022-10-17T04:35:29.897Z,1.77
2022-10-17T04:40:38.634Z,1.42
2022-10-17T04:45:58.832Z,1.70
2022-10-17T04:51:06.061Z,1.70
2022-10-17T04:56:15.738Z,1.75
2022-10-17T05:06:53.037Z,1.80
2022-10-17T05:11:58.679Z,1.95
2022-10-17T05:17:07.209Z,1.70
2022-10-17T05:22:14.020Z,1.70
2022-10-17T05:27:21.715Z,1.58
2022-10-17T05:32:32.602Z,1.80
2022-10-17T05:37:46.894Z,1.58
2022-10-17T05:42:55.321Z,1.77
2022-10-17T05:48:21.575Z,1.80
2022-10-17T05:53:26.926Z,1.70
2022-10-17T05:58:52.315Z,1.75
2022-10-17T06:04:29.165Z,2.00
2022-10-17T06:09:48.869Z,1.70
2022-10-17T06:15:01.604Z,1.58
2022-10-17T06:20:31.925Z,1.85
2022-10-17T06:25:37.490Z,2.00
2022-10-17T06:30:43.461Z,1.50
2022-10-17T06:35:58.883Z,1.70
2022-10-17T06:41:19.777Z,1.60
2022-10-17T06:46:27.018Z,1.70
2022-10-17T06:51:34.483Z,1.58
2022-10-17T06:56:41.323Z,1.35
2022-10-17T07:07:14.734Z,1.50
2022-10-17T07:12:24.643Z,1.48
2022-10-17T07:17:31.485Z,1.40
2022-10-17T07:22:44.132Z,1.55
2022-10-17T07:27:53.094Z,1.42
2022-10-17T07:33:10.843Z,1.50
2022-10-17T07:38:18.645Z,1.45
2022-10-17T07:43:29.173Z,1.27
2022-10-17T07:48:41.380Z,1.45
2022-10-17T07:54:02.354Z,1.20
2022-10-17T07:59:17.003Z,1.40
2022-10-17T08:04:26.045Z,1.45
2022-10-17T08:09:46.931Z,1.30
2022-10-17T08:15:01.851Z,1.33
2022-10-17T08:20:13.649Z,1.10
2022-10-17T08:25:26.556Z,1.83
2022-10-17T08:30:33.555Z,1.40
2022-10-17T08:35:48.402Z,1.50
2022-10-17T08:40:59.756Z,1.90
2022-10-17T08:46:44.665Z,4.90
2022-10-17T08:52:11.354Z,1.40
2022-10-17T08:57:33.689Z,2.88
2022-10-17T09:02:53.557Z,1.88
2022-10-17T09:08:07.705Z,1.48
2022-10-17T09:13:25.675Z,2.15
2022-10-17T09:18:35.538Z,1.40
2022-10-17T09:24:08.984Z,2.20
2022-10-17T09:29:34.158Z,1.88
2022-10-17T09:34:51.976Z,3.00
2022-10-17T09:39:57.251Z,1.50
2022-10-17T09:45:40.739Z,2.15
2022-10-17T09:51:14.593Z,3.05
2022-10-17T09:56:32.771Z,1.35
2022-10-17T10:01:42.563Z,1.70
2022-10-17T10:07:29.118Z,1.50
2022-10-17T10:13:10.799Z,1.40
2022-10-17T10:18:37.073Z,1.45
2022-10-17T10:23:47.047Z,1.23
2022-10-17T10:29:08.717Z,1.60
2022-10-17T10:34:37.490Z,1.20
2022-10-17T10:39:54.190Z,1.38
2022-10-17T10:45:23.637Z,1.58
2022-10-17T10:50:55.406Z,1.67
2022-10-17T10:56:13.553Z,1.40
2022-10-17T11:01:32.694Z,1.20
2022-10-17T11:07:07.383Z,1.95
2022-10-17T11:12:20.245Z,1.13
2022-10-17T11:17:41.592Z,1.45
2022-10-17T11:23:04.135Z,1.15
2022-10-17T11:28:22.472Z,1.45
2022-10-17T11:33:38.965Z,1.40
2022-10-17T11:38:53.412Z,1.27
2022-10-17T11:44:03.198Z,1.17
2022-10-17T11:49:20.577Z,1.13
2022-10-17T11:54:42.232Z,1.30
2022-10-17T12:00:28.661Z,1.27
2022-10-17T12:05:48.610Z,1.30
2022-10-17T12:11:05.462Z,1.35
2022-10-17T12:16:46.101Z,1.20
2022-10-17T12:22:00.981Z,1.40
2022-10-17T12:27:32.810Z,1.48
2022-10-17T12:33:07.036Z,1.33
2022-10-17T12:38:30.990Z,1.50
2022-10-17T12:44:34.911Z,1.20
2022-10-17T12:49:53.104Z,1.50
2022-10-17T12:55:14.366Z,1.15
2022-10-17T13:00:33.520Z,1.30
2022-10-17T13:05:50.101Z,1.20
2022-10-17T13:11:16.632Z,1.27
2022-10-17T13:16:39.191Z,1.25
2022-10-17T13:21:59.726Z,1.33
2022-10-17T13:27:25.226Z,1.50
2022-10-17T13:32:47.026Z,1.30
2022-10-17T13:37:56.380Z,1.52
2022-10-17T13:43:10.194Z,1.10
2022-10-17T13:48:38.886Z,1.20
2022-10-17T13:53:45.798Z,1.30
2022-10-17T13:58:57.717Z,1.23
2022-10-17T14:04:11.663Z,1.40
2022-10-17T14:09:30.483Z,1.15
2022-10-17T14:15:10.803Z,1.20
2022-10-17T14:26:30.126Z,1.20
2022-10-17T14:31:42.093Z,1.50
2022-10-17T14:36:54.942Z,1.50
2022-10-17T14:42:04.651Z,1.05
2022-10-17T14:47:42.192Z,1.33
2022-10-17T14:53:08.567Z,1.17
2022-10-17T14:58:33.870Z,1.50
2022-10-17T15:03:45.704Z,1.33
2022-10-17T15:08:59.694Z,1.27
2022-10-17T15:14:08.667Z,1.00
2022-10-17T15:19:20.906Z,1.35
2022-10-17T15:24:31.307Z,1.40
2022-10-17T15:29:39.787Z,1.70
2022-10-17T15:34:48.976Z,1.40
2022-10-17T15:40:00.770Z,2.33
2022-10-17T15:45:06.386Z,1.52
2022-10-17T15:50:17.254Z,1.35
2022-10-17T15:55:33.383Z,1.30
2022-10-17T16:00:54.952Z,1.50
2022-10-17T16:06:16.400Z,1.80
2022-10-17T16:11:39.748Z,2.20
2022-10-17T16:16:49.007Z,1.65
2022-10-17T16:22:07.050Z,1.90
2022-10-17T16:27:26.062Z,1.65
2022-10-17T16:32:34.959Z,2.00
2022-10-17T16:37:49.583Z,2.00
2022-10-17T16:43:05.977Z,2.42
2022-10-17T16:48:29.744Z,2.25
2022-10-17T16:53:47.800Z,2.63
2022-10-17T16:58:56.488Z,2.70
2022-10-17T17:04:16.393Z,2.75
2022-10-17T17:09:38.249Z,2.72
2022-10-17T17:14:46.338Z,3.08
2022-10-17T17:19:57.672Z,2.90
2022-10-17T17:25:14.693Z,3.22
2022-10-17T17:30:21.367Z,3.17
2022-10-17T17:35:27.396Z,3.72
2022-10-17T17:40:34.939Z,3.25
2022-10-17T17:45:47.187Z,3.40
2022-10-17T17:50:57.031Z,3.13
2022-10-17T17:56:13.746Z,3.30
2022-10-17T18:01:24.489Z,3.33
2022-10-17T18:06:35.756Z,3.40
2022-10-17T18:11:45.807Z,3.78
2022-10-17T18:17:02.726Z,3.45
2022-10-17T18:22:10.216Z,3.70
2022-10-17T18:27:20.290Z,3.60
2022-10-17T18:32:37.691Z,4.03
2022-10-17T18:37:47.450Z,3.78
2022-10-17T18:43:00.876Z,3.63
2022-10-17T18:48:09.807Z,4.57
2022-10-17T18:53:16.710Z,4.00
2022-10-17T18:58:26.526Z,4.07
2022-10-17T19:03:34.537Z,4.50
2022-10-17T19:08:41.891Z,3.78
2022-10-17T19:14:03.343Z,4.40
2022-10-17T19:19:14.415Z,4.03
2022-10-17T19:24:36.011Z,4.32
2022-10-17T19:29:47.656Z,4.05
2022-10-17T19:34:55.871Z,3.55
2022-10-17T19:40:00.592Z,4.45
2022-10-17T19:45:05.246Z,3.83
2022-10-17T19:50:30.067Z,3.70
2022-10-17T19:55:53.239Z,4.13
2022-10-17T20:01:04.560Z,3.58
2022-10-17T20:06:14.778Z,3.95
2022-10-17T20:11:23.250Z,3.60
2022-10-17T20:16:31.700Z,5.22
2022-10-17T20:21:41.787Z,4.53
2022-10-17T20:26:54.517Z,3.70
2022-10-17T20:32:03.850Z,4.32
2022-10-17T20:37:16.870Z,3.95
2022-10-17T20:42:24.285Z,3.63
2022-10-17T20:47:47.107Z,3.60
2022-10-17T20:53:24.524Z,3.80
2022-10-17T20:58:25.097Z,4.00
2022-10-17T21:03:32.229Z,3.78
2022-10-17T21:09:07.268Z,3.58
2022-10-17T21:14:37.346Z,3.75
2022-10-17T21:20:08.998Z,3.47
2022-10-17T21:25:34.332Z,3.13
2022-10-17T21:30:59.692Z,3.50
2022-10-17T21:36:28.298Z,3.40
2022-10-17T21:42:06.095Z,3.45
2022-10-17T21:47:32.194Z,3.80
2022-10-17T21:53:07.163Z,4.18
2022-10-17T21:58:34.629Z,3.10
2022-10-17T22:04:04.645Z,3.60
2022-10-17T22:09:36.265Z,2.90
2022-10-17T22:15:04.308Z,3.10
2022-10-17T22:20:28.838Z,3.25
2022-10-17T22:25:56.833Z,3.38
2022-10-17T22:31:32.916Z,3.42
2022-10-17T22:36:56.910Z,3.53
2022-10-17T22:42:25.621Z,3.70
2022-10-17T22:48:02.853Z,3.47
2022-10-17T22:53:35.308Z,3.30
2022-10-17T22:58:59.215Z,3.83
2022-10-17T23:04:31.409Z,4.10
2022-10-17T23:10:10.029Z,3.78
2022-10-17T23:15:38.535Z,3.90
2022-10-17T23:21:11.383Z,4.20
2022-10-17T23:26:42.091Z,3.40
2022-10-17T23:32:11.696Z,3.50
2022-10-17T23:37:36.971Z,3.75
2022-10-17T23:43:16.891Z,3.53
2022-10-17T23:48:39.703Z,3.35
2022-10-17T23:54:16.832Z,3.65
2022-10-17T23:59:40.860Z,3.70
